TAF KZZV
KZZV 270538Z 2706/2806 27004KT P6SM OVC035 FM271000 20005KT P6SM OVC100 FM280000 16005KT P6SM VCSH OVC050=
METAR KZZV
WC KZZV
WS KZZV
WV KZZV